createdAt,value
2022-11-04T00:01:21.206Z,12.13
2022-11-04T00:03:48.727Z,12.18
2022-11-04T00:06:16.305Z,12.30
2022-11-04T00:08:49.838Z,12.45
2022-11-04T00:11:35.091Z,12.07
2022-11-04T00:14:02.884Z,12.17
2022-11-04T00:16:47.927Z,12.16
2022-11-04T00:19:15.448Z,12.07
2022-11-04T00:22:01.071Z,12.09
2022-11-04T00:25:02.133Z,12.09
2022-11-04T00:27:47.052Z,11.85
2022-11-04T00:30:15.547Z,11.97
2022-11-04T00:33:00.663Z,12.09
2022-11-04T00:35:28.083Z,12.10
2022-11-04T00:37:55.637Z,12.05
2022-11-04T00:40:24.389Z,11.96
2022-11-04T00:42:51.863Z,11.83
2022-11-04T00:45:19.269Z,11.72
2022-11-04T00:47:46.777Z,11.92
2022-11-04T00:50:14.352Z,11.90
2022-11-04T00:52:41.999Z,11.83
2022-11-04T00:55:09.882Z,11.82
2022-11-04T00:57:38.975Z,11.77
2022-11-04T01:00:07.609Z,11.80
2022-11-04T01:02:35.185Z,11.70
2022-11-04T01:05:02.729Z,11.77
2022-11-04T01:07:30.166Z,11.57
2022-11-04T01:09:57.629Z,11.70
2022-11-04T01:12:25.109Z,11.62
2022-11-04T01:14:53.956Z,11.55
2022-11-04T01:17:21.408Z,11.65
2022-11-04T01:19:48.841Z,11.78
2022-11-04T01:22:16.316Z,11.69
2022-11-04T01:24:43.790Z,11.72
2022-11-04T01:27:11.254Z,11.56
2022-11-04T01:29:39.042Z,11.74
2022-11-04T01:32:07.930Z,11.85
2022-11-04T01:34:40.643Z,11.69
2022-11-04T01:37:10.819Z,11.71
2022-11-04T01:39:38.292Z,11.83
2022-11-04T01:42:05.761Z,11.71
2022-11-04T01:44:54.890Z,11.45
2022-11-04T01:47:29.684Z,11.52
2022-11-04T01:50:01.323Z,11.62
2022-11-04T01:52:32.183Z,11.62
2022-11-04T01:55:03.928Z,11.80
2022-11-04T01:57:35.370Z,11.57
2022-11-04T02:00:06.743Z,11.54
2022-11-04T02:02:41.227Z,11.51
2022-11-04T02:05:08.956Z,11.50
2022-11-04T02:07:37.328Z,11.32
2022-11-04T02:10:05.396Z,11.32
2022-11-04T02:12:50.226Z,11.43
2022-11-04T02:15:21.959Z,11.24
2022-11-04T02:18:14.191Z,11.35
2022-11-04T02:21:09.344Z,11.49
2022-11-04T02:24:04.444Z,11.43
2022-11-04T02:26:53.511Z,11.40
2022-11-04T02:29:29.498Z,11.36
2022-11-04T02:32:07.277Z,11.31
2022-11-04T02:34:43.932Z,11.37
2022-11-04T02:37:20.532Z,11.35
2022-11-04T02:39:54.708Z,11.41
2022-11-04T02:42:29.380Z,11.37
2022-11-04T02:45:11.583Z,11.41
2022-11-04T02:47:44.945Z,11.36
2022-11-04T02:50:17.088Z,11.23
2022-11-04T02:52:51.521Z,11.44
2022-11-04T02:55:23.059Z,11.47
2022-11-04T02:57:54.289Z,11.58
2022-11-04T03:00:23.093Z,11.51
2022-11-04T03:02:55.025Z,11.34
2022-11-04T03:05:27.207Z,11.40
2022-11-04T03:07:58.409Z,11.34
2022-11-04T03:10:31.263Z,11.09
2022-11-04T03:13:03.367Z,11.18
2022-11-04T03:15:35.134Z,11.18
2022-11-04T03:18:13.824Z,11.25
2022-11-04T03:20:42.586Z,11.19
2022-11-04T03:23:11.538Z,11.11
2022-11-04T03:25:42.820Z,11.23
2022-11-04T03:28:24.019Z,11.10
2022-11-04T03:30:57.158Z,11.08
2022-11-04T03:33:30.863Z,11.16
2022-11-04T03:35:58.435Z,11.13
2022-11-04T03:38:25.958Z,11.04
2022-11-04T03:40:53.468Z,11.23
2022-11-04T03:43:25.519Z,11.20
2022-11-04T03:45:55.431Z,11.14
2022-11-04T03:48:23.935Z,10.99
2022-11-04T03:50:51.764Z,11.09
2022-11-04T03:53:22.906Z,11.19
2022-11-04T03:56:06.131Z,10.96
2022-11-04T03:58:44.239Z,11.05
2022-11-04T04:01:27.936Z,10.94
2022-11-04T04:04:00.405Z,10.91
2022-11-04T04:06:30.980Z,11.05
2022-11-04T04:09:03.807Z,11.09
2022-11-04T04:11:40.140Z,11.03
2022-11-04T04:14:35.384Z,10.92
2022-11-04T04:19:37.015Z,11.04
2022-11-04T04:22:09.822Z,11.25
2022-11-04T04:25:00.296Z,11.22
2022-11-04T04:27:34.026Z,11.27
2022-11-04T04:30:05.819Z,11.36
2022-11-04T04:32:39.392Z,11.50
2022-11-04T04:35:26.000Z,11.34
2022-11-04T04:37:56.063Z,11.37
2022-11-04T04:40:47.016Z,11.09
2022-11-04T04:43:34.732Z,11.16
2022-11-04T04:46:03.374Z,11.11
2022-11-04T04:48:32.297Z,11.12
2022-11-04T04:51:02.043Z,11.03
2022-11-04T04:53:30.029Z,11.04
2022-11-04T04:55:57.485Z,11.10
2022-11-04T04:58:24.924Z,11.21
2022-11-04T05:00:52.419Z,11.33
2022-11-04T05:03:19.933Z,11.27
2022-11-04T05:05:48.747Z,11.25
2022-11-04T05:08:16.171Z,11.41
2022-11-04T05:10:43.625Z,11.33
2022-11-04T05:13:29.903Z,11.26
2022-11-04T05:15:57.509Z,11.21
2022-11-04T05:18:24.968Z,11.16
2022-11-04T05:20:53.727Z,11.19
2022-11-04T05:23:21.352Z,11.17
2022-11-04T05:25:48.825Z,11.08
2022-11-04T05:28:16.318Z,11.08
2022-11-04T05:30:44.142Z,11.05
2022-11-04T05:33:12.202Z,11.04
2022-11-04T05:35:40.137Z,11.08
2022-11-04T05:38:09.051Z,11.08
2022-11-04T05:40:36.534Z,11.10
2022-11-04T05:43:04.049Z,11.11
2022-11-04T05:45:31.572Z,11.25
2022-11-04T05:48:00.622Z,11.28
2022-11-04T05:50:28.396Z,11.26
2022-11-04T05:52:57.787Z,11.37
2022-11-04T05:55:26.657Z,11.44
2022-11-04T05:57:54.547Z,11.46
2022-11-04T06:00:22.171Z,11.50
2022-11-04T06:02:49.701Z,11.60
2022-11-04T06:05:17.345Z,11.65
2022-11-04T06:07:44.819Z,11.67
2022-11-04T06:10:12.380Z,11.66
2022-11-04T06:12:41.248Z,11.57
2022-11-04T06:15:10.055Z,11.44
2022-11-04T06:17:37.902Z,11.52
2022-11-04T06:20:06.505Z,11.55
2022-11-04T06:22:34.138Z,11.67
2022-11-04T06:25:01.635Z,11.76
2022-11-04T06:27:29.079Z,11.74
2022-11-04T06:29:57.915Z,11.72
2022-11-04T06:32:25.388Z,11.87
2022-11-04T06:34:52.849Z,12.04
2022-11-04T06:37:20.319Z,12.13
2022-11-04T06:39:47.759Z,12.15
2022-11-04T06:42:15.207Z,12.19
2022-11-04T06:44:42.686Z,12.16
2022-11-04T06:47:11.603Z,12.17
2022-11-04T06:49:39.082Z,12.22
2022-11-04T06:52:06.514Z,12.21
2022-11-04T06:54:34.408Z,12.07
2022-11-04T06:57:02.868Z,12.01
2022-11-04T06:59:30.404Z,11.99
2022-11-04T07:01:58.111Z,12.02
2022-11-04T07:04:27.033Z,12.00
2022-11-04T07:06:54.588Z,12.01
2022-11-04T07:09:22.039Z,12.11
2022-11-04T07:11:49.585Z,12.17
2022-11-04T07:14:17.005Z,12.09
2022-11-04T07:16:44.624Z,12.18
2022-11-04T07:19:12.049Z,12.24
2022-11-04T07:21:40.808Z,12.28
2022-11-04T07:24:08.315Z,12.27
2022-11-04T07:26:35.812Z,12.41
2022-11-04T07:29:03.274Z,12.43
2022-11-04T07:31:30.701Z,12.36
2022-11-04T07:33:58.152Z,12.24
2022-11-04T07:36:25.552Z,12.01
2022-11-04T07:38:55.466Z,11.88
2022-11-04T07:41:22.960Z,11.88
2022-11-04T07:43:51.412Z,11.80
2022-11-04T07:46:20.182Z,11.66
2022-11-04T07:48:48.231Z,11.67
2022-11-04T07:51:18.480Z,11.53
2022-11-04T07:53:46.580Z,11.56
2022-11-04T07:56:15.946Z,11.58
2022-11-04T07:58:44.100Z,11.52
2022-11-04T08:01:13.624Z,11.44
2022-11-04T08:03:41.341Z,11.55
2022-11-04T08:06:10.562Z,11.44
2022-11-04T08:08:38.587Z,11.48
2022-11-04T08:11:14.244Z,11.61
2022-11-04T08:13:47.410Z,11.75
2022-11-04T08:16:16.868Z,11.84
2022-11-04T08:18:45.571Z,11.92
2022-11-04T08:21:13.647Z,12.11
2022-11-04T08:23:41.085Z,12.07
2022-11-04T08:26:10.276Z,12.06
2022-11-04T08:28:38.121Z,12.10
2022-11-04T08:31:09.427Z,12.11
2022-11-04T08:33:36.920Z,12.12
2022-11-04T08:36:06.933Z,11.97
2022-11-04T08:38:35.034Z,12.17
2022-11-04T08:41:04.232Z,12.37
2022-11-04T08:43:32.382Z,12.56
2022-11-04T08:45:59.827Z,12.65
2022-11-04T08:48:29.209Z,12.69
2022-11-04T08:50:58.831Z,12.79
2022-11-04T08:53:27.091Z,12.87
2022-11-04T08:55:55.195Z,12.84
2022-11-04T08:58:24.638Z,12.96
2022-11-04T09:00:52.234Z,13.04
2022-11-04T09:03:19.981Z,13.07
2022-11-04T09:05:49.105Z,13.03
2022-11-04T09:08:18.264Z,13.01
2022-11-04T09:10:47.468Z,12.93
2022-11-04T09:13:16.440Z,13.03
2022-11-04T09:15:44.347Z,13.12
2022-11-04T09:18:11.836Z,12.99
2022-11-04T09:20:39.490Z,12.98
2022-11-04T09:23:09.090Z,13.04
2022-11-04T09:25:36.909Z,13.31
2022-11-04T09:28:05.344Z,13.45
2022-11-04T09:30:33.122Z,13.57
2022-11-04T09:33:00.861Z,13.74
2022-11-04T09:35:28.437Z,13.53
2022-11-04T09:37:56.446Z,13.50
2022-11-04T09:40:26.419Z,13.54
2022-11-04T09:43:06.933Z,13.48
2022-11-04T09:45:40.024Z,13.32
2022-11-04T09:48:13.237Z,13.49
2022-11-04T09:50:46.632Z,13.71
2022-11-04T09:53:18.605Z,13.70
2022-11-04T09:55:53.796Z,13.88
2022-11-04T09:58:21.145Z,14.01
2022-11-04T10:00:55.377Z,13.99
2022-11-04T10:03:42.508Z,14.05
2022-11-04T10:06:25.532Z,13.89
2022-11-04T10:09:03.984Z,13.85
2022-11-04T10:11:41.904Z,13.85
2022-11-04T10:14:23.848Z,13.82
2022-11-04T10:17:01.634Z,13.72
2022-11-04T10:19:44.486Z,14.00
2022-11-04T10:22:20.363Z,14.29
2022-11-04T10:25:00.004Z,14.52
2022-11-04T10:27:33.044Z,14.67
2022-11-04T10:30:04.317Z,14.68
2022-11-04T10:32:37.782Z,14.75
2022-11-04T10:35:14.691Z,14.90
2022-11-04T10:37:42.283Z,14.77
2022-11-04T10:40:21.073Z,14.73
2022-11-04T10:42:51.549Z,14.70
2022-11-04T10:45:21.631Z,14.49
2022-11-04T10:47:57.365Z,14.54
2022-11-04T10:50:31.737Z,14.63
2022-11-04T10:53:17.295Z,14.54
2022-11-04T10:55:52.410Z,14.54
2022-11-04T10:58:23.840Z,14.55
2022-11-04T11:00:52.576Z,14.63
2022-11-04T11:03:29.204Z,14.74
2022-11-04T11:06:15.150Z,14.90
2022-11-04T11:08:44.644Z,15.01
2022-11-04T11:11:12.622Z,15.06
2022-11-04T11:13:43.811Z,15.11
2022-11-04T11:16:15.237Z,15.09
2022-11-04T11:18:42.887Z,14.97
2022-11-04T11:21:13.437Z,15.15
2022-11-04T11:23:43.914Z,15.32
2022-11-04T11:26:14.208Z,15.44
2022-11-04T11:28:54.422Z,15.41
2022-11-04T11:31:26.639Z,15.31
2022-11-04T11:33:57.813Z,15.38
2022-11-04T11:36:27.569Z,15.42
2022-11-04T11:39:03.532Z,15.32
2022-11-04T11:41:32.607Z,15.32
2022-11-04T11:44:06.042Z,15.09
2022-11-04T11:46:37.800Z,14.98
2022-11-04T11:49:06.399Z,14.99
2022-11-04T11:51:35.981Z,15.02
2022-11-04T11:54:24.653Z,14.89
2022-11-04T12:02:45.704Z,14.64
2022-11-04T12:11:10.600Z,14.70
2022-11-04T12:13:43.079Z,14.58
2022-11-04T12:16:22.512Z,14.44
2022-11-04T12:19:05.320Z,14.47
2022-11-04T12:21:34.781Z,14.46
2022-11-04T12:24:14.731Z,14.48
2022-11-04T12:26:54.251Z,14.50
2022-11-04T12:29:36.896Z,14.54
2022-11-04T12:32:14.537Z,14.48
2022-11-04T12:34:53.099Z,14.54
2022-11-04T12:37:33.331Z,14.57
2022-11-04T12:40:13.021Z,14.57
2022-11-04T12:42:54.496Z,14.63
2022-11-04T12:45:33.406Z,14.67
2022-11-04T12:48:07.201Z,14.75
2022-11-04T12:50:46.981Z,14.82
2022-11-04T12:53:30.295Z,14.93
2022-11-04T12:56:07.509Z,14.96
2022-11-04T12:59:13.412Z,15.14
2022-11-04T13:01:46.919Z,15.25
2022-11-04T13:04:21.338Z,15.37
2022-11-04T13:06:53.699Z,15.42
2022-11-04T13:09:31.242Z,15.44
2022-11-04T13:12:06.392Z,15.46
2022-11-04T13:14:39.596Z,15.50
2022-11-04T13:17:12.283Z,15.21
2022-11-04T13:19:47.540Z,15.30
2022-11-04T13:22:19.288Z,15.28
2022-11-04T13:24:51.448Z,15.21
2022-11-04T13:27:22.326Z,15.19
2022-11-04T13:29:52.672Z,15.09
2022-11-04T13:32:26.858Z,15.16
2022-11-04T13:35:05.070Z,15.27
2022-11-04T13:37:38.087Z,15.36
2022-11-04T13:40:13.714Z,15.35
2022-11-04T13:43:37.047Z,15.42
2022-11-04T13:46:08.347Z,15.39
2022-11-04T13:48:38.817Z,15.28
2022-11-04T13:51:10.451Z,15.26
2022-11-04T13:53:43.686Z,15.28
2022-11-04T13:56:32.222Z,15.35
2022-11-04T13:59:02.889Z,15.24
2022-11-04T14:01:32.951Z,15.32
2022-11-04T14:04:20.008Z,15.25
2022-11-04T14:06:52.742Z,15.25
2022-11-04T14:10:00.923Z,15.24
2022-11-04T14:12:36.015Z,15.07
2022-11-04T14:15:08.110Z,15.05
2022-11-04T14:18:01.013Z,15.02
2022-11-04T14:20:32.930Z,15.04
2022-11-04T14:23:03.457Z,14.99
2022-11-04T14:25:34.176Z,15.04
2022-11-04T14:28:03.707Z,14.96
2022-11-04T14:30:35.625Z,14.95
2022-11-04T14:33:07.486Z,14.92
2022-11-04T14:35:36.710Z,14.95
2022-11-04T14:38:26.665Z,14.88
2022-11-04T14:41:16.152Z,14.85
2022-11-04T14:43:46.307Z,14.64
2022-11-04T14:46:20.524Z,14.70
2022-11-04T14:48:52.189Z,14.83
2022-11-04T14:51:27.559Z,14.83
2022-11-04T14:54:04.274Z,14.75
2022-11-04T14:56:32.154Z,14.78
2022-11-04T14:59:03.153Z,14.77
2022-11-04T15:01:35.231Z,14.63
2022-11-04T15:04:13.319Z,14.63
2022-11-04T15:06:54.700Z,14.64
2022-11-04T15:09:26.907Z,14.68
2022-11-04T15:12:20.359Z,14.60
2022-11-04T15:14:48.035Z,14.51
2022-11-04T15:17:20.669Z,14.56
2022-11-04T15:19:51.560Z,14.51
2022-11-04T15:22:20.526Z,14.43
2022-11-04T15:24:50.515Z,14.33
2022-11-04T15:27:19.691Z,14.46
2022-11-04T15:29:55.012Z,14.35
2022-11-04T15:32:26.235Z,14.44
2022-11-04T15:34:55.574Z,14.41
2022-11-04T15:37:24.490Z,14.40
2022-11-04T15:39:56.024Z,14.33
2022-11-04T15:42:44.490Z,14.32
2022-11-04T15:45:30.227Z,14.31
2022-11-04T15:48:29.951Z,14.36
2022-11-04T15:51:17.537Z,14.31
2022-11-04T15:53:51.475Z,14.30
2022-11-04T15:56:22.990Z,14.27
2022-11-04T15:58:51.863Z,14.28
2022-11-04T16:01:20.742Z,14.22
2022-11-04T16:03:53.133Z,14.22
2022-11-04T16:06:34.492Z,14.14
2022-11-04T16:09:05.329Z,14.21
2022-11-04T16:11:34.324Z,14.22
2022-11-04T16:14:24.745Z,14.22
2022-11-04T16:16:54.832Z,14.13
2022-11-04T16:19:25.860Z,14.15
2022-11-04T16:22:00.608Z,13.88
2022-11-04T16:24:32.796Z,13.86
2022-11-04T16:27:02.208Z,13.95
2022-11-04T16:29:32.538Z,13.92
2022-11-04T16:32:25.458Z,14.09
2022-11-04T16:34:54.797Z,14.00
2022-11-04T16:37:22.226Z,13.90
2022-11-04T16:39:50.449Z,13.82
2022-11-04T16:42:19.402Z,13.77
2022-11-04T16:44:49.436Z,13.68
2022-11-04T16:47:18.511Z,13.74
2022-11-04T16:49:46.102Z,13.81
2022-11-04T16:52:20.307Z,13.72
2022-11-04T16:54:48.105Z,13.69
2022-11-04T16:57:16.445Z,13.70
2022-11-04T16:59:45.252Z,13.65
2022-11-04T17:02:20.012Z,13.63
2022-11-04T17:04:47.567Z,13.64
2022-11-04T17:07:15.056Z,13.66
2022-11-04T17:09:42.506Z,13.76
2022-11-04T17:12:10.716Z,13.72
2022-11-04T17:14:38.190Z,13.67
2022-11-04T17:17:08.085Z,13.63
2022-11-04T17:19:35.746Z,13.73
2022-11-04T17:22:06.173Z,13.81
2022-11-04T17:24:33.881Z,13.78
2022-11-04T17:27:01.469Z,13.77
2022-11-04T17:29:29.805Z,13.72
2022-11-04T17:31:57.284Z,13.78
2022-11-04T17:34:26.644Z,13.82
2022-11-04T17:36:54.331Z,13.78
2022-11-04T17:39:21.927Z,13.74
2022-11-04T17:42:06.878Z,13.75
2022-11-04T17:44:34.364Z,13.60
2022-11-04T17:47:11.908Z,13.53
2022-11-04T17:49:39.772Z,13.44
2022-11-04T17:52:07.228Z,13.38
2022-11-04T17:54:34.919Z,13.48
2022-11-04T17:57:02.399Z,13.50
2022-11-04T17:59:33.930Z,13.50
2022-11-04T18:02:04.202Z,13.57
2022-11-04T18:04:33.282Z,13.54
2022-11-04T18:07:03.080Z,13.53
2022-11-04T18:09:30.965Z,13.50
2022-11-04T18:12:21.296Z,13.53
2022-11-04T18:14:48.806Z,13.53
2022-11-04T18:17:16.275Z,13.39
2022-11-04T18:19:45.038Z,13.48
2022-11-04T18:22:12.540Z,13.52
2022-11-04T18:24:40.706Z,13.48
2022-11-04T18:27:08.214Z,13.53
2022-11-04T18:29:35.703Z,13.50
2022-11-04T18:32:03.386Z,13.51
2022-11-04T18:34:30.847Z,13.38
2022-11-04T18:37:00.239Z,13.43
2022-11-04T18:39:27.646Z,13.49
2022-11-04T18:41:55.099Z,13.47
2022-11-04T18:44:23.929Z,13.42
2022-11-04T18:46:51.647Z,13.28
2022-11-04T18:49:20.554Z,13.23
2022-11-04T18:51:48.088Z,13.14
2022-11-04T18:54:16.924Z,13.21
2022-11-04T18:56:44.808Z,13.21
2022-11-04T18:59:14.528Z,13.20
2022-11-04T19:01:43.087Z,13.22
2022-11-04T19:04:10.681Z,13.23
2022-11-04T19:06:42.676Z,13.02
2022-11-04T19:12:18.649Z,12.88
2022-11-04T19:14:46.211Z,12.83
2022-11-04T19:17:13.752Z,12.89
2022-11-04T19:19:42.993Z,12.62
2022-11-04T19:22:11.627Z,12.49
2022-11-04T19:24:39.105Z,12.58
2022-11-04T19:27:07.898Z,12.44
2022-11-04T19:29:35.336Z,12.54
2022-11-04T19:32:02.807Z,12.43
2022-11-04T19:34:30.314Z,12.40
2022-11-04T19:36:57.786Z,12.51
2022-11-04T19:39:25.455Z,12.54
2022-11-04T19:42:10.386Z,12.62
2022-11-04T19:44:39.186Z,12.54
2022-11-04T19:47:08.288Z,12.65
2022-11-04T19:49:35.774Z,12.64
2022-11-04T19:52:03.212Z,12.66
2022-11-04T19:54:30.683Z,12.65
2022-11-04T19:56:58.159Z,12.63
2022-11-04T19:59:25.595Z,12.38
2022-11-04T20:01:54.485Z,12.25
2022-11-04T20:04:22.166Z,12.05
2022-11-04T20:06:49.658Z,12.14
2022-11-04T20:09:17.127Z,12.16
2022-11-04T20:11:58.514Z,12.27
2022-11-04T20:14:26.578Z,12.31
2022-11-04T20:16:55.621Z,12.45
2022-11-04T20:19:23.592Z,12.41
2022-11-04T20:21:51.710Z,12.41
2022-11-04T20:24:19.450Z,12.40
2022-11-04T20:26:47.496Z,12.62
2022-11-04T20:29:16.505Z,12.61
2022-11-04T20:31:45.057Z,12.58
2022-11-04T20:34:15.183Z,12.68
2022-11-04T20:36:42.870Z,12.74
2022-11-04T20:39:13.519Z,12.51
2022-11-04T20:41:41.226Z,12.51
2022-11-04T20:44:10.183Z,12.27
2022-11-04T20:46:37.932Z,12.35
2022-11-04T20:49:05.440Z,12.46
2022-11-04T20:51:35.893Z,12.39
2022-11-04T20:54:06.501Z,12.44
2022-11-04T20:56:35.849Z,12.50
2022-11-04T20:59:03.871Z,12.44
2022-11-04T21:01:34.368Z,12.60
2022-11-04T21:04:03.817Z,12.60
2022-11-04T21:06:31.440Z,12.52
2022-11-04T21:09:00.636Z,12.64
2022-11-04T21:11:32.031Z,12.71
2022-11-04T21:14:00.075Z,12.80
2022-11-04T21:16:27.926Z,12.80
2022-11-04T21:18:57.026Z,12.79
2022-11-04T21:21:27.174Z,12.88
2022-11-04T21:23:57.274Z,12.86
2022-11-04T21:26:27.711Z,12.79
2022-11-04T21:28:57.163Z,12.66
2022-11-04T21:31:26.171Z,12.66
2022-11-04T21:33:53.970Z,12.62
2022-11-04T21:36:22.425Z,12.71
2022-11-04T21:38:50.074Z,12.82
2022-11-04T21:41:19.591Z,12.72
2022-11-04T21:43:48.687Z,12.70
2022-11-04T21:46:16.833Z,12.79
2022-11-04T21:48:47.295Z,12.77
2022-11-04T21:51:17.052Z,12.88
2022-11-04T21:53:45.039Z,12.72
2022-11-04T21:56:17.123Z,12.64
2022-11-04T21:58:51.746Z,12.71
2022-11-04T22:01:24.968Z,12.59
2022-11-04T22:03:53.620Z,12.66
2022-11-04T22:06:21.515Z,12.58
2022-11-04T22:08:53.721Z,12.67
2022-11-04T22:11:24.143Z,12.72
2022-11-04T22:13:58.833Z,12.75
2022-11-04T22:16:30.371Z,12.71
2022-11-04T22:18:59.498Z,12.64
2022-11-04T22:21:31.614Z,12.76
2022-11-04T22:24:00.025Z,12.79
2022-11-04T22:26:29.312Z,12.79
2022-11-04T22:28:58.479Z,12.70
2022-11-04T22:31:28.131Z,12.57
2022-11-04T22:33:58.318Z,12.60
2022-11-04T22:36:26.206Z,12.58
2022-11-04T22:38:53.745Z,12.70
2022-11-04T22:41:26.899Z,12.67
2022-11-04T22:43:54.415Z,12.55
2022-11-04T22:46:27.366Z,12.62
2022-11-04T22:48:54.821Z,12.60
2022-11-04T22:51:22.340Z,12.60
2022-11-04T22:53:56.752Z,12.53
2022-11-04T22:56:27.475Z,12.48
2022-11-04T22:58:55.160Z,12.45
2022-11-04T23:01:25.853Z,12.54
2022-11-04T23:03:53.596Z,12.48
2022-11-04T23:06:23.735Z,12.45
2022-11-04T23:08:59.622Z,12.48
2022-11-04T23:11:48.694Z,12.35
2022-11-04T23:14:36.546Z,12.31
2022-11-04T23:17:31.934Z,12.36
2022-11-04T23:19:59.555Z,12.23
2022-11-04T23:22:45.178Z,12.21
2022-11-04T23:25:13.394Z,12.21
2022-11-04T23:28:03.985Z,12.16
2022-11-04T23:30:33.603Z,12.22
2022-11-04T23:33:04.015Z,12.11
2022-11-04T23:35:52.617Z,12.05
2022-11-04T23:38:20.816Z,11.86
2022-11-04T23:41:04.109Z,11.91
2022-11-04T23:43:33.958Z,11.89
2022-11-04T23:46:19.330Z,11.80
2022-11-04T23:49:05.840Z,11.83
2022-11-04T23:51:50.924Z,11.88
2022-11-04T23:54:36.078Z,11.63
2022-11-04T23:57:22.075Z,11.61
